createdAt,value
2018-07-09T00:00:30.283Z,0.00
2018-07-09T00:01:30.292Z,0.00
2018-07-09T00:02:30.245Z,0.00
2018-07-09T00:03:30.202Z,0.00
2018-07-09T00:04:30.183Z,0.00
2018-07-09T00:05:30.164Z,0.00
2018-07-09T00:06:30.164Z,0.00
2018-07-09T00:07:30.100Z,0.00
2018-07-09T00:08:30.070Z,0.00
2018-07-09T00:09:30.099Z,0.00
2018-07-09T00:10:30.034Z,0.00
2018-07-09T00:11:30.024Z,0.00
2018-07-09T00:12:30.563Z,0.00
2018-07-09T00:13:29.986Z,0.00
2018-07-09T00:14:29.935Z,0.00
2018-07-09T00:15:30.534Z,0.00
2018-07-09T00:16:29.907Z,0.00
2018-07-09T00:17:29.853Z,0.00
2018-07-09T00:18:29.820Z,0.00
2018-07-09T00:19:29.806Z,0.00
2018-07-09T00:20:31.550Z,0.00
2018-07-09T00:21:29.741Z,0.00
2018-07-09T00:22:29.747Z,0.00
2018-07-09T00:23:29.719Z,0.00
2018-07-09T00:24:29.679Z,0.00
2018-07-09T00:25:29.690Z,0.00
2018-07-09T00:26:29.641Z,0.00
2018-07-09T00:27:29.592Z,0.00
2018-07-09T00:28:29.613Z,0.00
2018-07-09T00:29:29.576Z,0.00
2018-07-09T00:30:29.544Z,0.00
2018-07-09T00:31:29.490Z,0.00
2018-07-09T00:32:29.461Z,0.00
2018-07-09T00:33:29.480Z,0.00
2018-07-09T00:34:29.423Z,0.00
2018-07-09T00:35:29.396Z,0.00
2018-07-09T00:36:29.425Z,0.00
2018-07-09T00:37:29.356Z,0.00
2018-07-09T00:38:29.328Z,0.00
2018-07-09T00:39:29.326Z,0.00
2018-07-09T00:40:29.268Z,0.00
2018-07-09T00:41:29.238Z,0.00
2018-07-09T00:42:29.210Z,0.00
2018-07-09T00:43:29.179Z,0.00
2018-07-09T00:44:29.167Z,0.00
2018-07-09T00:45:29.176Z,0.00
2018-07-09T00:46:29.121Z,0.00
2018-07-09T00:47:29.093Z,0.00
2018-07-09T00:48:30.053Z,0.00
2018-07-09T00:49:29.029Z,0.00
2018-07-09T00:50:29.032Z,0.00
2018-07-09T00:51:28.967Z,0.00
2018-07-09T00:52:28.962Z,0.00
2018-07-09T00:53:28.933Z,0.00
2018-07-09T00:54:30.522Z,0.00
2018-07-09T00:55:29.572Z,0.00
2018-07-09T00:56:28.876Z,0.00
2018-07-09T00:57:28.829Z,0.00
2018-07-09T00:58:28.793Z,0.00
2018-07-09T00:59:28.760Z,0.00
2018-07-09T01:00:28.750Z,0.00
2018-07-09T01:01:28.733Z,0.00
2018-07-09T01:02:28.689Z,0.00
2018-07-09T01:03:28.679Z,0.00
2018-07-09T01:04:28.652Z,0.00
2018-07-09T01:05:28.659Z,0.00
2018-07-09T01:06:28.606Z,0.00
2018-07-09T01:07:28.606Z,0.00
2018-07-09T01:08:28.573Z,0.00
2018-07-09T01:09:28.560Z,0.00
2018-07-09T01:10:28.491Z,0.00
2018-07-09T01:11:28.469Z,0.00
2018-07-09T01:12:28.432Z,0.00
2018-07-09T01:13:28.452Z,0.00
2018-07-09T01:14:28.397Z,0.00
2018-07-09T01:15:29.042Z,0.00
2018-07-09T01:16:28.321Z,0.00
2018-07-09T01:17:28.334Z,0.00
2018-07-09T01:18:28.307Z,0.00
2018-07-09T01:19:28.289Z,0.00
2018-07-09T01:20:28.324Z,0.00
2018-07-09T01:21:28.223Z,0.00
2018-07-09T01:22:28.199Z,0.00
2018-07-09T01:23:28.198Z,0.00
2018-07-09T01:24:28.174Z,0.00
2018-07-09T01:25:28.139Z,0.00
2018-07-09T01:26:28.092Z,0.00
2018-07-09T01:27:28.029Z,0.00
2018-07-09T01:28:28.033Z,0.00
2018-07-09T01:29:28.001Z,0.00
2018-07-09T01:30:28.006Z,0.00
2018-07-09T01:31:27.954Z,0.00
2018-07-09T01:32:27.910Z,0.00
2018-07-09T01:33:27.897Z,0.00
2018-07-09T01:34:27.863Z,0.00
2018-07-09T01:35:27.830Z,0.00
2018-07-09T01:36:27.844Z,0.00
2018-07-09T01:37:27.813Z,0.00
2018-07-09T01:38:27.757Z,0.00
2018-07-09T01:39:27.734Z,0.00
2018-07-09T01:40:27.721Z,0.00
2018-07-09T01:41:27.697Z,0.00
2018-07-09T01:42:27.689Z,0.00
2018-07-09T01:43:27.639Z,0.00
2018-07-09T01:44:27.592Z,0.00
2018-07-09T01:45:27.601Z,0.00
2018-07-09T01:46:27.564Z,0.00
2018-07-09T01:47:27.575Z,0.00
2018-07-09T01:48:27.546Z,0.00
2018-07-09T01:49:27.494Z,0.00
2018-07-09T01:50:27.438Z,0.00
2018-07-09T01:52:27.416Z,0.00
2018-07-09T01:53:27.356Z,0.00
2018-07-09T01:54:27.399Z,0.00
2018-07-09T01:55:27.350Z,0.00
2018-07-09T01:56:27.305Z,0.00
2018-07-09T01:57:27.278Z,0.00
2018-07-09T01:58:27.235Z,0.00
2018-07-09T01:59:27.199Z,0.00
2018-07-09T02:00:28.074Z,0.00
2018-07-09T02:01:27.181Z,0.00
2018-07-09T02:02:27.139Z,0.00
2018-07-09T02:03:27.138Z,0.00
2018-07-09T02:04:27.100Z,0.00
2018-07-09T02:05:27.084Z,0.00
2018-07-09T02:06:27.037Z,0.00
2018-07-09T02:07:27.027Z,0.00
2018-07-09T02:08:27.569Z,0.00
2018-07-09T02:09:26.962Z,0.00
2018-07-09T02:10:26.910Z,0.00
2018-07-09T02:11:26.949Z,0.00
2018-07-09T02:12:26.876Z,0.00
2018-07-09T02:13:26.845Z,0.00
2018-07-09T02:14:26.808Z,0.00
2018-07-09T02:15:27.564Z,0.00
2018-07-09T02:16:26.797Z,0.00
2018-07-09T02:17:26.747Z,0.00
2018-07-09T02:18:26.705Z,0.00
2018-07-09T02:19:26.695Z,0.00
2018-07-09T02:20:26.660Z,0.00
2018-07-09T02:21:26.639Z,0.00
2018-07-09T02:22:26.605Z,0.00
2018-07-09T02:23:26.569Z,0.00
2018-07-09T02:24:26.596Z,0.00
2018-07-09T02:25:26.566Z,0.00
2018-07-09T02:26:26.509Z,0.00
2018-07-09T02:27:26.480Z,0.00
2018-07-09T02:28:26.444Z,0.00
2018-07-09T02:29:26.426Z,0.00
2018-07-09T02:30:26.401Z,0.00
2018-07-09T02:31:26.389Z,0.00
2018-07-09T02:32:26.369Z,0.00
2018-07-09T02:33:26.382Z,0.00
2018-07-09T02:34:26.308Z,0.00
2018-07-09T02:35:26.265Z,0.00
2018-07-09T02:36:26.227Z,0.00
2018-07-09T02:37:26.316Z,0.00
2018-07-09T02:38:26.189Z,0.00
2018-07-09T02:39:26.161Z,0.00
2018-07-09T02:40:26.130Z,0.00
2018-07-09T02:41:26.105Z,5.63
2018-07-09T02:42:26.069Z,5.63
2018-07-09T02:43:26.062Z,5.63
2018-07-09T02:44:26.089Z,5.63
2018-07-09T02:45:26.000Z,5.63
2018-07-09T02:46:25.973Z,5.63
2018-07-09T02:47:25.957Z,5.63
2018-07-09T02:48:25.952Z,5.63
2018-07-09T02:49:26.605Z,5.63
2018-07-09T02:50:25.944Z,11.25
2018-07-09T02:51:25.875Z,11.25
2018-07-09T02:52:25.814Z,11.25
2018-07-09T02:53:25.826Z,11.25
2018-07-09T02:54:25.769Z,11.25
2018-07-09T02:55:25.783Z,11.25
2018-07-09T02:56:25.712Z,11.25
2018-07-09T02:57:25.683Z,16.88
2018-07-09T02:58:25.673Z,16.88
2018-07-09T02:59:25.675Z,16.88
2018-07-09T03:00:25.637Z,16.88
2018-07-09T03:01:25.603Z,16.88
2018-07-09T03:02:25.592Z,22.50
2018-07-09T03:03:25.556Z,22.50
2018-07-09T03:04:25.579Z,22.50
2018-07-09T03:05:25.508Z,22.50
2018-07-09T03:06:25.480Z,22.50
2018-07-09T03:07:25.464Z,28.13
2018-07-09T03:08:25.446Z,28.13
2018-07-09T03:09:25.354Z,28.13
2018-07-09T03:10:28.069Z,28.13
2018-07-09T03:11:25.340Z,33.75
2018-07-09T03:12:25.325Z,33.75
2018-07-09T03:13:25.284Z,33.75
2018-07-09T03:14:25.245Z,33.75
2018-07-09T03:15:25.194Z,39.38
2018-07-09T03:16:25.183Z,39.38
2018-07-09T03:17:25.157Z,39.38
2018-07-09T03:19:25.085Z,45.00
2018-07-09T03:20:25.109Z,45.00
2018-07-09T03:21:25.063Z,45.00
2018-07-09T03:22:25.018Z,45.00
2018-07-09T03:23:24.986Z,45.00
2018-07-09T03:24:24.995Z,50.63
2018-07-09T03:25:24.982Z,50.63
2018-07-09T03:26:24.928Z,50.63
2018-07-09T03:27:24.905Z,56.25
2018-07-09T03:28:24.847Z,56.25
2018-07-09T03:29:24.836Z,56.25
2018-07-09T03:30:24.801Z,56.25
2018-07-09T03:31:24.791Z,61.88
2018-07-09T03:32:24.763Z,61.88
2018-07-09T03:33:24.797Z,61.88
2018-07-09T03:34:24.709Z,61.88
2018-07-09T03:35:24.700Z,61.88
2018-07-09T03:36:24.681Z,67.50
2018-07-09T03:37:24.626Z,67.50
2018-07-09T03:38:24.602Z,67.50
2018-07-09T03:39:24.568Z,67.50
2018-07-09T03:40:24.548Z,73.13
2018-07-09T03:41:24.560Z,73.13
2018-07-09T03:42:24.493Z,73.13
2018-07-09T03:43:24.479Z,73.13
2018-07-09T03:44:24.443Z,78.75
2018-07-09T03:45:24.405Z,78.75
2018-07-09T03:46:25.071Z,78.75
2018-07-09T03:47:24.355Z,78.75
2018-07-09T03:48:24.340Z,84.38
2018-07-09T03:49:24.293Z,84.38
2018-07-09T03:50:24.268Z,84.38
2018-07-09T03:51:24.325Z,84.38
2018-07-09T03:52:24.215Z,90.00
2018-07-09T03:53:24.227Z,90.00
2018-07-09T03:54:24.222Z,90.00
2018-07-09T03:55:24.145Z,101.25
2018-07-09T03:56:24.123Z,101.25
2018-07-09T03:57:24.113Z,101.25
2018-07-09T03:58:24.096Z,101.25
2018-07-09T03:59:24.039Z,101.25
2018-07-09T04:00:24.019Z,101.25
2018-07-09T04:01:24.018Z,106.88
2018-07-09T04:02:23.948Z,112.50
2018-07-09T04:03:23.937Z,106.88
2018-07-09T04:04:23.888Z,112.50
2018-07-09T04:05:23.884Z,112.50
2018-07-09T04:06:23.839Z,112.50
2018-07-09T04:07:23.824Z,118.13
2018-07-09T04:08:23.799Z,123.75
2018-07-09T04:09:23.779Z,118.13
2018-07-09T04:10:23.730Z,123.75
2018-07-09T04:11:23.723Z,129.38
2018-07-09T04:12:23.692Z,174.38
2018-07-09T04:13:23.662Z,253.13
2018-07-09T04:14:23.641Z,275.63
2018-07-09T04:15:23.604Z,275.63
2018-07-09T04:16:23.600Z,275.63
2018-07-09T04:17:23.551Z,281.25
2018-07-09T04:18:23.537Z,286.88
2018-07-09T04:19:23.499Z,281.25
2018-07-09T04:20:23.480Z,281.25
2018-07-09T04:21:23.477Z,286.88
2018-07-09T04:22:23.424Z,286.88
2018-07-09T04:23:23.422Z,292.50
2018-07-09T04:24:23.381Z,292.50
2018-07-09T04:25:23.362Z,298.13
2018-07-09T04:26:23.412Z,298.13
2018-07-09T04:27:23.303Z,303.75
2018-07-09T04:28:23.287Z,303.75
2018-07-09T04:29:23.254Z,309.38
2018-07-09T04:30:23.251Z,315.00
2018-07-09T04:31:23.222Z,320.63
2018-07-09T04:32:23.186Z,326.25
2018-07-09T04:33:23.160Z,326.25
2018-07-09T04:34:23.142Z,331.88
2018-07-09T04:35:23.133Z,343.13
2018-07-09T04:36:23.093Z,354.38
2018-07-09T04:37:23.088Z,354.38
2018-07-09T04:38:23.073Z,365.63
2018-07-09T04:39:23.030Z,376.88
2018-07-09T04:40:23.007Z,388.13
2018-07-09T04:41:23.064Z,393.75
2018-07-09T04:42:23.566Z,405.00
2018-07-09T04:43:23.027Z,405.00
2018-07-09T04:44:22.927Z,433.13
2018-07-09T04:45:22.904Z,444.38
2018-07-09T04:46:22.882Z,450.00
2018-07-09T04:47:22.872Z,461.25
2018-07-09T04:48:22.834Z,472.50
2018-07-09T04:49:22.832Z,472.50
2018-07-09T04:50:22.804Z,461.25
2018-07-09T04:51:22.782Z,455.63
2018-07-09T04:52:22.774Z,444.38
2018-07-09T04:53:22.736Z,438.75
2018-07-09T04:54:22.753Z,433.13
2018-07-09T04:55:22.735Z,421.88
2018-07-09T04:56:22.672Z,416.25
2018-07-09T04:57:22.740Z,405.00
2018-07-09T04:58:22.852Z,399.38
2018-07-09T04:59:22.761Z,388.13
2018-07-09T05:00:22.792Z,382.50
2018-07-09T05:01:30.521Z,371.25
2018-07-09T05:03:16.470Z,360.00
2018-07-09T05:04:16.693Z,354.38
2018-07-09T05:05:16.333Z,354.38
2018-07-09T05:06:16.502Z,348.75
2018-07-09T05:07:16.266Z,348.75
2018-07-09T05:08:16.276Z,348.75
2018-07-09T05:09:16.263Z,348.75
2018-07-09T05:10:17.208Z,348.75
2018-07-09T05:11:16.299Z,343.13
2018-07-09T05:12:16.179Z,337.50
2018-07-09T05:13:16.095Z,315.00
2018-07-09T05:14:16.102Z,275.63
2018-07-09T05:15:16.114Z,264.38
2018-07-09T05:16:16.176Z,247.50
2018-07-09T05:17:16.184Z,236.25
2018-07-09T05:18:16.036Z,247.50
2018-07-09T05:19:21.659Z,247.50
2018-07-09T05:20:16.045Z,253.13
2018-07-09T05:21:16.088Z,253.13
2018-07-09T05:22:16.654Z,253.13
2018-07-09T05:23:15.980Z,253.13
2018-07-09T05:24:17.737Z,258.75
2018-07-09T05:25:15.942Z,258.75
2018-07-09T05:26:15.859Z,264.38
2018-07-09T05:27:15.932Z,264.38
2018-07-09T05:28:15.846Z,275.63
2018-07-09T05:29:15.933Z,281.25
2018-07-09T05:30:15.825Z,286.88
2018-07-09T05:31:15.867Z,286.88
2018-07-09T05:32:15.739Z,275.63
2018-07-09T05:33:15.937Z,270.00
2018-07-09T05:34:15.866Z,270.00
2018-07-09T05:35:15.763Z,264.38
2018-07-09T05:36:15.700Z,253.13
2018-07-09T05:37:15.743Z,270.00
2018-07-09T05:38:15.617Z,281.25
2018-07-09T05:39:15.727Z,309.38
2018-07-09T05:40:15.658Z,337.50
2018-07-09T05:41:15.573Z,343.13
2018-07-09T05:42:17.254Z,343.13
2018-07-09T05:43:15.631Z,348.75
2018-07-09T05:44:15.702Z,348.75
2018-07-09T05:45:15.597Z,348.75
2018-07-09T05:46:15.544Z,354.38
2018-07-09T05:47:16.183Z,360.00
2018-07-09T05:48:15.466Z,365.63
2018-07-09T05:49:15.427Z,365.63
2018-07-09T05:50:16.166Z,365.63
2018-07-09T05:51:15.402Z,365.63
2018-07-09T05:52:15.505Z,365.63
2018-07-09T05:53:15.325Z,360.00
2018-07-09T05:54:15.296Z,354.38
2018-07-09T05:55:15.275Z,326.25
2018-07-09T05:56:15.386Z,315.00
2018-07-09T05:57:15.255Z,348.75
2018-07-09T05:58:15.258Z,371.25
2018-07-09T05:59:16.148Z,416.25
2018-07-09T06:00:15.362Z,416.25
2018-07-09T06:01:15.108Z,410.63
2018-07-09T06:02:15.724Z,416.25
2018-07-09T06:03:15.296Z,410.63
2018-07-09T06:04:15.039Z,405.00
2018-07-09T06:05:15.140Z,416.25
2018-07-09T06:06:15.003Z,416.25
2018-07-09T06:07:15.001Z,405.00
2018-07-09T06:08:15.013Z,399.38
2018-07-09T06:09:14.994Z,376.88
2018-07-09T06:10:14.928Z,410.63
2018-07-09T06:11:15.003Z,421.88
2018-07-09T06:12:15.019Z,421.88
2018-07-09T06:13:14.830Z,433.13
2018-07-09T06:14:14.879Z,450.00
2018-07-09T06:15:14.901Z,371.25
2018-07-09T06:16:14.859Z,433.13
2018-07-09T06:17:14.771Z,427.50
2018-07-09T06:18:14.731Z,416.25
2018-07-09T06:19:14.744Z,405.00
2018-07-09T06:20:14.688Z,410.63
2018-07-09T06:21:14.736Z,410.63
2018-07-09T06:22:14.569Z,472.50
2018-07-09T06:23:14.546Z,500.63
2018-07-09T06:24:14.565Z,466.88
2018-07-09T06:25:14.667Z,506.25
2018-07-09T06:26:14.467Z,506.25
2018-07-09T06:27:14.473Z,506.25
2018-07-09T06:28:14.666Z,500.63
2018-07-09T06:29:14.519Z,511.88
2018-07-09T06:30:14.469Z,506.25
2018-07-09T06:31:14.433Z,461.25
2018-07-09T06:32:14.369Z,438.75
2018-07-09T06:33:14.553Z,478.13
2018-07-09T06:34:14.288Z,478.13
2018-07-09T06:35:14.360Z,483.75
2018-07-09T06:36:14.334Z,489.38
2018-07-09T06:37:14.279Z,450.00
2018-07-09T06:39:15.597Z,399.38
2018-07-09T06:40:15.110Z,393.75
2018-07-09T06:41:14.231Z,388.13
2018-07-09T06:42:15.094Z,388.13
2018-07-09T06:43:14.168Z,382.50
2018-07-09T06:44:14.602Z,388.13
2018-07-09T06:45:14.168Z,405.00
2018-07-09T06:46:14.096Z,444.38
2018-07-09T06:47:14.151Z,466.88
2018-07-09T06:48:14.043Z,433.13
2018-07-09T06:49:13.990Z,410.63
2018-07-09T06:50:14.645Z,405.00
2018-07-09T06:52:13.973Z,376.88
2018-07-09T06:53:13.960Z,365.63
2018-07-09T06:54:13.879Z,354.38
2018-07-09T06:55:14.051Z,343.13
2018-07-09T06:56:13.819Z,343.13
2018-07-09T06:57:13.832Z,331.88
2018-07-09T06:58:13.859Z,315.00
2018-07-09T06:59:13.820Z,309.38
2018-07-09T07:00:13.827Z,292.50
2018-07-09T07:01:13.909Z,286.88
2018-07-09T07:02:13.767Z,309.38
2018-07-09T07:03:13.761Z,337.50
2018-07-09T07:04:13.672Z,360.00
2018-07-09T07:05:13.733Z,382.50
2018-07-09T07:06:13.877Z,410.63
2018-07-09T07:07:13.646Z,354.38
2018-07-09T07:08:13.635Z,298.13
2018-07-09T07:09:13.802Z,258.75
2018-07-09T07:10:13.507Z,225.00
2018-07-09T07:11:13.630Z,196.88
2018-07-09T07:12:13.531Z,185.63
2018-07-09T07:13:13.606Z,180.00
2018-07-09T07:14:14.153Z,174.38
2018-07-09T07:15:15.011Z,163.13
2018-07-09T07:16:13.650Z,163.13
2018-07-09T07:17:13.473Z,174.38
2018-07-09T07:18:13.571Z,185.63
2018-07-09T07:19:13.658Z,202.50
2018-07-09T07:20:13.439Z,208.13
2018-07-09T07:21:13.344Z,219.38
2018-07-09T07:22:13.765Z,225.00
2018-07-09T07:23:13.351Z,225.00
2018-07-09T07:24:13.248Z,241.88
2018-07-09T07:25:13.635Z,264.38
2018-07-09T07:26:13.280Z,286.88
2018-07-09T07:27:13.156Z,303.75
2018-07-09T07:28:13.115Z,286.88
2018-07-09T07:29:13.251Z,275.63
2018-07-09T07:30:13.158Z,281.25
2018-07-09T07:31:13.144Z,281.25
2018-07-09T07:32:13.149Z,253.13
2018-07-09T07:33:13.438Z,230.63
2018-07-09T07:34:13.419Z,241.88
2018-07-09T07:35:13.123Z,264.38
2018-07-09T07:36:13.175Z,286.88
2018-07-09T07:37:13.000Z,275.63
2018-07-09T07:38:13.027Z,264.38
2018-07-09T07:39:12.956Z,264.38
2018-07-09T07:40:13.011Z,247.50
2018-07-09T07:41:18.962Z,241.88
2018-07-09T07:42:12.879Z,241.88
2018-07-09T07:43:12.984Z,253.13
2018-07-09T07:44:12.848Z,247.50
2018-07-09T07:45:12.888Z,241.88
2018-07-09T07:46:13.161Z,253.13
2018-07-09T07:47:12.641Z,286.88
2018-07-09T07:48:12.736Z,315.00
2018-07-09T07:49:12.657Z,281.25
2018-07-09T07:50:12.915Z,258.75
2018-07-09T07:51:12.698Z,258.75
2018-07-09T07:52:12.692Z,270.00
2018-07-09T07:53:12.803Z,253.13
2018-07-09T07:54:12.601Z,236.25
2018-07-09T07:55:12.524Z,230.63
2018-07-09T07:56:12.553Z,236.25
2018-07-09T07:57:12.478Z,236.25
2018-07-09T07:58:12.335Z,253.13
2018-07-09T07:59:12.483Z,270.00
2018-07-09T08:00:13.130Z,281.25
2018-07-09T08:01:12.360Z,253.13
2018-07-09T08:02:12.414Z,247.50
2018-07-09T08:03:12.281Z,241.88
2018-07-09T08:04:13.104Z,236.25
2018-07-09T08:05:12.370Z,213.75
2018-07-09T08:06:12.325Z,191.25
2018-07-09T08:07:12.182Z,180.00
2018-07-09T08:08:12.415Z,180.00
2018-07-09T08:09:12.211Z,191.25
2018-07-09T08:10:12.217Z,208.13
2018-07-09T08:11:12.225Z,219.38
2018-07-09T08:13:00.534Z,230.63
2018-07-09T08:13:27.985Z,219.38
2018-07-09T08:14:12.245Z,213.75
2018-07-09T08:15:12.068Z,213.75
2018-07-09T08:16:11.974Z,202.50
2018-07-09T08:17:12.022Z,196.88
2018-07-09T08:18:12.043Z,196.88
2018-07-09T08:19:12.053Z,202.50
2018-07-09T08:20:12.000Z,202.50
2018-07-09T08:21:12.027Z,191.25
2018-07-09T08:22:11.913Z,191.25
2018-07-09T08:23:11.921Z,185.63
2018-07-09T08:24:11.990Z,191.25
2018-07-09T08:25:11.928Z,191.25
2018-07-09T08:26:11.753Z,185.63
2018-07-09T08:27:15.867Z,191.25
2018-07-09T08:28:11.908Z,202.50
2018-07-09T08:29:12.902Z,219.38
2018-07-09T08:30:11.811Z,241.88
2018-07-09T08:31:11.782Z,264.38
2018-07-09T08:32:11.732Z,281.25
2018-07-09T08:33:11.641Z,286.88
2018-07-09T08:34:11.703Z,264.38
2018-07-09T08:35:11.532Z,275.63
2018-07-09T08:36:11.719Z,320.63
2018-07-09T08:37:13.276Z,326.25
2018-07-09T08:38:11.776Z,320.63
2018-07-09T08:39:11.801Z,315.00
2018-07-09T08:40:11.684Z,292.50
2018-07-09T08:41:12.096Z,292.50
2018-07-09T08:42:11.462Z,303.75
2018-07-09T08:43:11.468Z,298.13
2018-07-09T08:44:11.450Z,281.25
2018-07-09T08:45:11.484Z,264.38
2018-07-09T08:46:11.436Z,247.50
2018-07-09T08:47:11.659Z,225.00
2018-07-09T08:48:11.296Z,213.75
2018-07-09T08:49:11.263Z,202.50
2018-07-09T08:50:11.265Z,202.50
2018-07-09T08:51:11.320Z,196.88
2018-07-09T08:52:11.125Z,191.25
2018-07-09T08:53:11.119Z,185.63
2018-07-09T08:54:11.122Z,185.63
2018-07-09T08:55:11.194Z,196.88
2018-07-09T08:56:11.061Z,202.50
2018-07-09T08:57:11.496Z,202.50
2018-07-09T08:58:11.353Z,213.75
2018-07-09T08:59:11.201Z,219.38
2018-07-09T09:00:11.002Z,236.25
2018-07-09T09:01:10.962Z,292.50
2018-07-09T09:02:10.879Z,337.50
2018-07-09T09:03:10.980Z,348.75
2018-07-09T09:04:11.054Z,337.50
2018-07-09T09:05:10.938Z,343.13
2018-07-09T09:06:10.933Z,348.75
2018-07-09T09:07:10.968Z,331.88
2018-07-09T09:08:11.043Z,286.88
2018-07-09T09:09:10.803Z,236.25
2018-07-09T09:10:10.983Z,213.75
2018-07-09T09:11:10.804Z,196.88
2018-07-09T09:12:10.784Z,185.63
2018-07-09T09:13:10.834Z,168.75
2018-07-09T09:14:10.817Z,163.13
2018-07-09T09:15:11.724Z,151.88
2018-07-09T09:16:10.623Z,146.25
2018-07-09T09:17:10.624Z,140.63
2018-07-09T09:18:10.722Z,129.38
2018-07-09T09:19:11.319Z,129.38
2018-07-09T09:20:10.721Z,129.38
2018-07-09T09:21:11.048Z,135.00
2018-07-09T09:22:10.479Z,151.88
2018-07-09T09:23:10.590Z,185.63
2018-07-09T09:24:10.417Z,219.38
2018-07-09T09:25:10.584Z,247.50
2018-07-09T09:26:10.437Z,275.63
2018-07-09T09:27:10.416Z,298.13
2018-07-09T09:28:10.472Z,320.63
2018-07-09T09:29:10.587Z,320.63
2018-07-09T09:30:10.467Z,303.75
2018-07-09T09:31:10.426Z,292.50
2018-07-09T09:32:10.347Z,298.13
2018-07-09T09:33:10.368Z,309.38
2018-07-09T09:34:10.149Z,298.13
2018-07-09T09:35:10.359Z,270.00
2018-07-09T09:36:10.235Z,241.88
2018-07-09T09:37:10.177Z,236.25
2018-07-09T09:38:10.140Z,241.88
2018-07-09T09:39:10.229Z,253.13
2018-07-09T09:40:10.180Z,270.00
2018-07-09T09:41:10.224Z,292.50
2018-07-09T09:42:10.105Z,303.75
2018-07-09T09:43:10.199Z,320.63
2018-07-09T09:44:10.004Z,331.88
2018-07-09T09:45:10.004Z,331.88
2018-07-09T09:46:09.986Z,331.88
2018-07-09T09:47:10.199Z,331.88
2018-07-09T09:48:10.093Z,337.50
2018-07-09T09:49:09.858Z,365.63
2018-07-09T09:50:09.825Z,388.13
2018-07-09T09:51:09.988Z,405.00
2018-07-09T09:52:09.817Z,433.13
2018-07-09T09:53:10.797Z,483.75
2018-07-09T09:54:10.222Z,506.25
2018-07-09T09:55:09.927Z,517.50
2018-07-09T09:56:09.870Z,528.75
2018-07-09T09:57:09.782Z,534.38
2018-07-09T09:58:10.663Z,495.00
2018-07-09T09:59:09.751Z,455.63
2018-07-09T10:00:09.743Z,433.13
2018-07-09T10:01:09.669Z,393.75
2018-07-09T10:02:09.718Z,354.38
2018-07-09T10:03:09.722Z,326.25
2018-07-09T10:04:09.513Z,309.38
2018-07-09T10:05:09.751Z,298.13
2018-07-09T10:06:09.578Z,286.88
2018-07-09T10:07:11.250Z,281.25
2018-07-09T10:08:09.474Z,292.50
2018-07-09T10:09:09.426Z,343.13
2018-07-09T10:10:09.556Z,376.88
2018-07-09T10:11:09.486Z,405.00
2018-07-09T10:12:11.253Z,438.75
2018-07-09T10:13:09.614Z,483.75
2018-07-09T10:14:09.288Z,579.38
2018-07-09T10:15:11.186Z,478.13
2018-07-09T10:16:09.242Z,601.88
2018-07-09T10:17:09.169Z,635.63
2018-07-09T10:18:09.167Z,646.88
2018-07-09T10:19:09.132Z,675.00
2018-07-09T10:20:09.101Z,691.88
2018-07-09T10:21:09.108Z,714.38
2018-07-09T10:22:09.071Z,697.50
2018-07-09T10:23:09.312Z,652.50
2018-07-09T10:24:09.045Z,590.63
2018-07-09T10:26:09.027Z,483.75
2018-07-09T10:27:08.990Z,742.50
2018-07-09T10:28:08.970Z,472.50
2018-07-09T10:29:08.945Z,472.50
2018-07-09T10:30:08.925Z,770.63
2018-07-09T10:31:08.950Z,601.88
2018-07-09T10:32:08.878Z,540.00
2018-07-09T10:33:08.888Z,511.88
2018-07-09T10:34:08.864Z,590.63
2018-07-09T10:35:08.861Z,562.50
2018-07-09T10:36:08.806Z,725.63
2018-07-09T10:37:08.850Z,697.50
2018-07-09T10:38:08.779Z,703.13
2018-07-09T10:39:08.764Z,680.63
2018-07-09T10:40:08.752Z,590.63
2018-07-09T10:41:08.794Z,725.63
2018-07-09T10:42:08.840Z,714.38
2018-07-09T10:43:08.710Z,725.63
2018-07-09T10:44:08.697Z,579.38
2018-07-09T10:45:08.637Z,669.38
2018-07-09T10:46:08.634Z,376.88
2018-07-09T10:47:09.627Z,601.88
2018-07-09T10:48:08.653Z,686.25
2018-07-09T10:49:09.086Z,720.00
2018-07-09T10:50:08.545Z,444.38
2018-07-09T10:51:08.569Z,466.88
2018-07-09T10:52:08.538Z,511.88
2018-07-09T10:53:09.107Z,596.25
2018-07-09T10:54:08.483Z,523.13
2018-07-09T10:55:08.491Z,590.63
2018-07-09T10:56:08.426Z,562.50
2018-07-09T10:57:08.480Z,489.38
2018-07-09T10:58:09.146Z,483.75
2018-07-09T10:59:08.410Z,472.50
2018-07-09T11:00:08.360Z,461.25
2018-07-09T11:01:08.339Z,450.00
2018-07-09T11:02:08.366Z,461.25
2018-07-09T11:03:08.378Z,438.75
2018-07-09T11:04:08.307Z,455.63
2018-07-09T11:05:08.322Z,472.50
2018-07-09T11:06:08.255Z,523.13
2018-07-09T11:07:08.282Z,562.50
2018-07-09T11:08:08.234Z,748.13
2018-07-09T11:09:08.201Z,742.50
2018-07-09T11:10:09.106Z,725.63
2018-07-09T11:11:08.200Z,720.00
2018-07-09T11:12:08.171Z,416.25
2018-07-09T11:13:09.097Z,405.00
2018-07-09T11:14:08.123Z,421.88
2018-07-09T11:15:08.143Z,444.38
2018-07-09T11:16:08.139Z,461.25
2018-07-09T11:17:08.068Z,517.50
2018-07-09T11:18:08.067Z,528.75
2018-07-09T11:20:08.013Z,556.88
2018-07-09T11:21:07.994Z,798.75
2018-07-09T11:22:07.968Z,556.88
2018-07-09T11:23:07.972Z,450.00
2018-07-09T11:24:07.935Z,433.13
2018-07-09T11:25:07.948Z,405.00
2018-07-09T11:26:07.898Z,405.00
2018-07-09T11:27:07.882Z,427.50
2018-07-09T11:28:07.873Z,483.75
2018-07-09T11:29:07.894Z,770.63
2018-07-09T11:30:07.841Z,489.38
2018-07-09T11:31:07.804Z,483.75
2018-07-09T11:32:07.801Z,551.25
2018-07-09T11:33:07.779Z,545.63
2018-07-09T11:34:07.761Z,776.25
2018-07-09T11:35:08.570Z,759.38
2018-07-09T11:36:07.832Z,427.50
2018-07-09T11:37:07.729Z,399.38
2018-07-09T11:38:07.687Z,393.75
2018-07-09T11:39:07.676Z,393.75
2018-07-09T11:40:07.652Z,393.75
2018-07-09T11:41:07.661Z,405.00
2018-07-09T11:42:07.648Z,703.13
2018-07-09T11:43:07.608Z,686.25
2018-07-09T11:44:07.586Z,618.75
2018-07-09T11:45:07.576Z,736.88
2018-07-09T11:46:07.550Z,748.13
2018-07-09T11:47:07.539Z,483.75
2018-07-09T11:48:07.536Z,433.13
2018-07-09T11:49:07.500Z,427.50
2018-07-09T11:50:07.485Z,421.88
2018-07-09T11:51:07.462Z,421.88
2018-07-09T11:52:07.488Z,433.13
2018-07-09T11:53:07.472Z,483.75
2018-07-09T11:54:07.439Z,495.00
2018-07-09T11:55:07.398Z,534.38
2018-07-09T11:56:07.410Z,776.25
2018-07-09T11:57:07.372Z,742.50
2018-07-09T11:58:07.344Z,703.13
2018-07-09T11:59:07.348Z,551.25
2018-07-09T12:00:08.090Z,450.00
2018-07-09T12:01:07.298Z,466.88
2018-07-09T12:02:07.282Z,466.88
2018-07-09T12:03:07.262Z,478.13
2018-07-09T12:04:07.245Z,489.38
2018-07-09T12:06:07.231Z,500.63
2018-07-09T12:07:07.199Z,528.75
2018-07-09T12:08:07.174Z,590.63
2018-07-09T12:09:07.157Z,663.75
2018-07-09T12:10:07.147Z,720.00
2018-07-09T12:11:07.120Z,804.38
2018-07-09T12:12:07.107Z,787.50
2018-07-09T12:13:07.097Z,759.38
2018-07-09T12:14:07.072Z,753.75
2018-07-09T12:15:07.089Z,731.25
2018-07-09T12:16:07.042Z,720.00
2018-07-09T12:17:07.030Z,708.75
2018-07-09T12:18:07.012Z,691.88
2018-07-09T12:19:07.000Z,641.25
2018-07-09T12:20:06.983Z,691.88
2018-07-09T12:21:06.956Z,703.13
2018-07-09T12:22:06.937Z,585.00
2018-07-09T12:23:06.955Z,686.25
2018-07-09T12:24:06.906Z,691.88
2018-07-09T12:25:06.895Z,697.50
2018-07-09T12:26:06.882Z,708.75
2018-07-09T12:27:06.857Z,697.50
2018-07-09T12:28:06.842Z,703.13
2018-07-09T12:29:06.966Z,686.25
2018-07-09T12:30:06.820Z,652.50
2018-07-09T12:31:06.796Z,607.50
2018-07-09T12:32:06.781Z,511.88
2018-07-09T12:33:06.804Z,641.25
2018-07-09T12:34:06.749Z,585.00
2018-07-09T12:35:07.610Z,613.13
2018-07-09T12:36:06.731Z,703.13
2018-07-09T12:37:06.740Z,641.25
2018-07-09T12:38:06.675Z,545.63
2018-07-09T12:39:06.691Z,585.00
2018-07-09T12:40:06.675Z,798.75
2018-07-09T12:41:06.675Z,793.13
2018-07-09T12:42:06.623Z,590.63
2018-07-09T12:43:06.636Z,753.75
2018-07-09T12:44:06.619Z,714.38
2018-07-09T12:45:06.586Z,523.13
2018-07-09T12:46:06.575Z,511.88
2018-07-09T12:47:06.541Z,483.75
2018-07-09T12:48:06.565Z,489.38
2018-07-09T12:49:06.515Z,478.13